Time;durP1;ratioP1;P1;durP2;ratioP2;P2;SDS_P1;SDS_P2;PMS_P1;PMS_P2;Temp;Humidity;BMP_temperature;BMP_pressure;BME280_temperature;BME280_humidity;BME280_pressure;Samples;Min_cycle;Max_cycle;Signal;HPM_P1;HPM_P2
2023/09/21 00:01:23;;;;;;;8.03;4.70;;;;;17.90;96438.00;;;;5038521;28;20239;-69
2023/09/21 00:04:12;;;;;;;7.10;5.07;;;;;17.70;96440.00;;;;5045370;28;20207;-69
2023/09/21 00:07:03;;;;;;;6.57;4.60;;;;;17.70;96430.00;;;;5043269;28;20231;-68
2023/09/21 00:09:52;;;;;;;7.23;5.10;;;;;17.40;96432.00;;;;5039197;28;20205;-69
2023/09/21 00:12:41;;;;;;;8.57;5.37;;;;;17.60;96439.00;;;;5040934;28;20228;-69
2023/09/21 00:15:31;;;;;;;6.57;4.40;;;;;17.70;96430.00;;;;5042299;28;20212;-69
2023/09/21 00:18:24;;;;;;;9.37;5.13;;;;;17.60;96436.00;;;;5039741;28;20204;-68
2023/09/21 00:21:13;;;;;;;7.60;5.17;;;;;17.30;96434.00;;;;5045183;28;20235;-69
2023/09/21 00:24:05;;;;;;;7.37;4.80;;;;;17.50;96439.00;;;;5045866;28;20671;-68
2023/09/21 00:26:56;;;;;;;7.93;5.17;;;;;17.20;96423.00;;;;5046193;28;20251;-69
2023/09/21 00:29:46;;;;;;;6.53;4.63;;;;;17.30;96431.00;;;;5044983;28;20201;-69
2023/09/21 00:32:39;;;;;;;6.40;3.73;;;;;17.50;96431.00;;;;5040039;28;20235;-69
2023/09/21 00:35:29;;;;;;;7.30;5.00;;;;;17.40;96420.00;;;;5042967;28;20239;-69
2023/09/21 00:38:19;;;;;;;5.80;5.17;;;;;17.50;96428.00;;;;5039117;28;20209;-69
2023/09/21 00:41:10;;;;;;;8.83;4.77;;;;;17.00;96432.00;;;;5044683;28;20592;-68
2023/09/21 00:43:59;;;;;;;8.67;4.67;;;;;16.90;96431.00;;;;5045729;28;20205;-69
2023/09/21 00:46:48;;;;;;;8.83;5.63;;;;;17.10;96426.00;;;;5050315;28;20584;-69
2023/09/21 00:49:38;;;;;;;6.77;4.47;;;;;17.30;96420.00;;;;5049083;28;20211;-69
2023/09/21 00:52:28;;;;;;;10.13;5.90;;;;;17.40;96414.00;;;;5049987;28;20232;-69
2023/09/21 00:55:23;;;;;;;7.00;4.70;;;;;17.30;96418.00;;;;5050092;28;20200;-69
2023/09/21 00:58:14;;;;;;;8.67;4.90;;;;;17.40;96411.00;;;;5044620;28;20707;-69
2023/09/21 01:01:05;;;;;;;5.33;4.83;;;;;17.40;96416.00;;;;5046197;28;20960;-69
2023/09/21 01:03:56;;;;;;;4.77;4.13;;;;;17.20;96420.00;;;;5049936;28;20665;-69
2023/09/21 01:06:47;;;;;;;7.13;5.73;;;;;17.20;96413.00;;;;5043546;28;20603;-69
2023/09/21 01:09:36;;;;;;;10.63;5.77;;;;;17.10;96402.00;;;;5047936;28;20593;-69
2023/09/21 01:12:27;;;;;;;6.57;4.67;;;;;16.90;96407.00;;;;5040476;28;20602;-69
2023/09/21 01:15:18;;;;;;;6.03;4.40;;;;;17.10;96400.00;;;;5047975;28;20201;-69
2023/09/21 01:18:09;;;;;;;5.27;4.77;;;;;17.30;96395.00;;;;5048696;28;20209;-69
2023/09/21 01:21:04;;;;;;;6.83;4.87;;;;;17.20;96392.00;;;;5043114;28;20207;-69
2023/09/21 01:23:56;;;;;;;6.73;6.00;;;;;17.20;96390.00;;;;5045674;28;20209;-69
2023/09/21 01:26:46;;;;;;;8.63;4.67;;;;;17.00;96389.00;;;;5044465;28;20201;-69
2023/09/21 01:29:35;;;;;;;7.27;5.03;;;;;17.20;96380.00;;;;5050173;28;20196;-69
2023/09/21 01:32:24;;;;;;;7.27;4.73;;;;;17.10;96384.00;;;;5046468;28;20224;-69
2023/09/21 01:35:17;;;;;;;4.97;4.33;;;;;16.90;96382.00;;;;5049430;28;20729;-69
2023/09/21 01:38:07;;;;;;;10.27;5.13;;;;;16.90;96371.00;;;;5048797;28;20209;-69
2023/09/21 01:40:59;;;;;;;8.57;5.47;;;;;17.00;96375.00;;;;5044767;28;20204;-69
2023/09/21 01:43:48;;;;;;;7.43;3.90;;;;;16.90;96382.00;;;;5041372;28;20599;-69
2023/09/21 01:46:37;;;;;;;9.60;4.40;;;;;17.10;96366.00;;;;5040813;28;20212;-69
2023/09/21 01:49:26;;;;;;;5.27;4.77;;;;;17.00;96359.00;;;;5042636;28;20205;-69
2023/09/21 01:52:15;;;;;;;8.60;5.23;;;;;17.30;96358.00;;;;5043879;28;20239;-69
2023/09/21 01:55:10;;;;;;;5.13;4.07;;;;;17.40;96347.00;;;;5048582;28;20232;-69
2023/09/21 01:58:00;;;;;;;4.93;4.37;;;;;17.20;96353.00;;;;5045233;28;20223;-68
2023/09/21 02:00:49;;;;;;;5.53;4.80;;;;;16.50;96349.00;;;;5049451;28;20201;-69
2023/09/21 02:03:40;;;;;;;7.40;5.37;;;;;16.80;96343.00;;;;5049258;28;20197;-69
2023/09/21 02:06:29;;;;;;;7.70;5.43;;;;;17.10;96334.00;;;;5048859;28;20201;-69
2023/09/21 02:09:18;;;;;;;8.27;4.63;;;;;16.90;96334.00;;;;5048366;28;20208;-69
2023/09/21 02:12:07;;;;;;;6.00;4.97;;;;;16.90;96327.00;;;;5044817;28;20231;-69
2023/09/21 02:14:58;;;;;;;5.90;4.70;;;;;16.40;96337.00;;;;5040314;28;20235;-69
2023/09/21 02:17:48;;;;;;;6.33;4.80;;;;;16.30;96334.00;;;;5047977;28;20717;-69
2023/09/21 02:20:38;;;;;;;7.13;4.57;;;;;16.30;96324.00;;;;5047514;28;20215;-69
2023/09/21 02:23:28;;;;;;;11.37;5.20;;;;;16.70;96320.00;;;;5043000;28;20192;-68
2023/09/21 02:26:17;;;;;;;8.10;5.17;;;;;17.10;96318.00;;;;5036371;28;20681;-69
2023/09/21 02:29:06;;;;;;;7.73;4.63;;;;;17.30;96319.00;;;;5048514;28;20211;-69
2023/09/21 02:31:56;;;;;;;7.93;4.97;;;;;17.20;96315.00;;;;5047645;28;20232;-69
2023/09/21 02:34:45;;;;;;;5.40;4.20;;;;;17.00;96305.00;;;;5038964;28;20217;-68
2023/09/21 02:37:35;;;;;;;7.73;4.43;;;;;16.90;96300.00;;;;5037476;28;20208;-69
2023/09/21 02:40:25;;;;;;;8.93;5.10;;;;;16.70;96299.00;;;;5035821;28;20200;-69
2023/09/21 02:43:15;;;;;;;8.00;4.87;;;;;17.00;96298.00;;;;5048604;28;20815;-69
2023/09/21 02:46:04;;;;;;;6.77;5.00;;;;;17.20;96298.00;;;;5047592;28;20273;-69
2023/09/21 02:48:55;;;;;;;7.57;5.03;;;;;17.20;96299.00;;;;5042294;28;20208;-69
2023/09/21 02:51:44;;;;;;;5.97;5.37;;;;;17.10;96293.00;;;;5047634;28;20224;-69
2023/09/21 02:54:33;;;;;;;15.90;5.33;;;;;16.90;96290.00;;;;5043555;28;20232;-69
2023/09/21 02:57:22;;;;;;;7.47;4.43;;;;;16.90;96280.00;;;;5038680;28;20529;-69
2023/09/21 03:00:20;;;;;;;6.17;4.77;;;;;16.80;96267.00;;;;5038222;28;20204;-69
2023/09/21 03:03:10;;;;;;;5.17;4.77;;;;;16.50;96271.00;;;;5037737;28;20208;-69
2023/09/21 03:06:01;;;;;;;5.73;4.70;;;;;16.30;96283.00;;;;5040326;28;20342;-70
2023/09/21 03:08:50;;;;;;;6.67;4.53;;;;;16.70;96283.00;;;;5033728;28;20632;-70
2023/09/21 03:11:40;;;;;;;8.47;4.37;;;;;16.50;96277.00;;;;5043454;28;20689;-69
2023/09/21 03:14:29;;;;;;;10.23;4.30;;;;;17.00;96273.00;;;;5042219;28;20255;-70
2023/09/21 03:17:18;;;;;;;7.83;4.13;;;;;16.90;96269.00;;;;5042736;28;20204;-69
2023/09/21 03:20:25;;;;;;;5.40;4.77;;;;;16.70;96267.00;;;;5044211;28;20200;-69
2023/09/21 03:23:16;;;;;;;6.83;4.87;;;;;16.60;96257.00;;;;5040346;28;20204;-69
2023/09/21 03:26:05;;;;;;;6.23;5.53;;;;;16.20;96263.00;;;;5043985;28;20540;-69
2023/09/21 03:28:54;;;;;;;7.30;5.27;;;;;16.60;96259.00;;;;5046139;28;20204;-68
2023/09/21 03:31:43;;;;;;;7.93;4.63;;;;;16.70;96258.00;;;;5038803;28;20227;-69
2023/09/21 03:34:32;;;;;;;6.87;4.90;;;;;16.70;96252.00;;;;5044231;28;20259;-69
2023/09/21 03:37:22;;;;;;;6.13;4.30;;;;;17.00;96252.00;;;;5042621;28;20199;-69
2023/09/21 03:40:13;;;;;;;7.47;4.50;;;;;16.80;96260.00;;;;5042252;28;20215;-69
2023/09/21 03:43:02;;;;;;;7.77;4.87;;;;;16.60;96248.00;;;;5038039;28;20220;-69
2023/09/21 03:45:52;;;;;;;8.13;4.83;;;;;16.40;96243.00;;;;5046966;28;20208;-68
2023/09/21 03:48:41;;;;;;;6.97;4.93;;;;;16.20;96244.00;;;;5036048;28;20202;-69
2023/09/21 03:51:31;;;;;;;8.20;4.83;;;;;16.50;96236.00;;;;5038257;28;20237;-70
2023/09/21 03:54:20;;;;;;;9.83;5.27;;;;;16.50;96237.00;;;;5045479;28;20602;-70
2023/09/21 03:57:11;;;;;;;4.77;4.37;;;;;16.60;96246.00;;;;5035074;28;20583;-70
2023/09/21 04:00:00;;;;;;;6.47;4.77;;;;;16.60;96245.00;;;;5044665;28;20303;-70
2023/09/21 04:02:49;;;;;;;11.33;4.77;;;;;16.60;96237.00;;;;5043088;28;20893;-70
2023/09/21 04:05:40;;;;;;;5.63;4.63;;;;;16.00;96246.00;;;;5039088;28;20721;-69
2023/09/21 04:08:31;;;;;;;10.17;5.67;;;;;16.20;96251.00;;;;5036134;28;20212;-70
2023/09/21 04:11:20;;;;;;;6.43;4.10;;;;;16.30;96245.00;;;;5037899;28;20225;-70
2023/09/21 04:14:10;;;;;;;6.73;5.00;;;;;16.20;96243.00;;;;5041418;28;20228;-70
2023/09/21 04:17:04;;;;;;;8.73;5.10;;;;;16.40;96240.00;;;;5046431;28;20716;-70
2023/09/21 04:19:53;;;;;;;6.70;5.10;;;;;16.70;96235.00;;;;5049479;28;20205;-71
2023/09/21 04:22:43;;;;;;;8.87;4.40;;;;;16.80;96234.00;;;;5051409;28;20216;-70
2023/09/21 04:25:32;;;;;;;9.40;6.10;;;;;16.90;96229.00;;;;5049923;28;20197;-71
2023/09/21 04:28:23;;;;;;;8.60;5.10;;;;;17.10;96215.00;;;;5047523;28;20332;-71
2023/09/21 04:31:13;;;;;;;7.13;4.87;;;;;17.10;96212.00;;;;5040443;28;20232;-70
2023/09/21 04:34:02;;;;;;;5.97;4.37;;;;;17.10;96200.00;;;;5041937;28;20208;-70
2023/09/21 04:36:52;;;;;;;6.20;4.53;;;;;16.70;96206.00;;;;5043923;28;20673;-70
2023/09/21 04:39:41;;;;;;;9.77;4.97;;;;;16.40;96200.00;;;;5044591;28;20193;-69
2023/09/21 04:42:30;;;;;;;7.53;5.17;;;;;16.40;96200.00;;;;5051306;28;20224;-68
2023/09/21 04:45:19;;;;;;;8.73;4.17;;;;;16.50;96197.00;;;;5044863;28;20201;-68
2023/09/21 04:48:09;;;;;;;7.00;4.93;;;;;16.70;96201.00;;;;5048468;28;20579;-68
2023/09/21 04:50:59;;;;;;;7.53;5.70;;;;;17.10;96209.00;;;;5046156;28;20265;-68
2023/09/21 04:53:48;;;;;;;7.63;5.47;;;;;17.20;96198.00;;;;5041066;28;20275;-68
2023/09/21 04:56:38;;;;;;;5.43;4.93;;;;;17.40;96194.00;;;;5039614;28;20236;-68
2023/09/21 04:59:27;;;;;;;5.77;4.70;;;;;17.30;96190.00;;;;5049644;28;20846;-68
2023/09/21 05:02:16;;;;;;;6.40;4.90;;;;;17.40;96191.00;;;;5045485;28;20300;-68
2023/09/21 05:05:08;;;;;;;7.53;4.17;;;;;17.10;96191.00;;;;5045194;28;20209;-68
2023/09/21 05:07:57;;;;;;;6.03;5.13;;;;;16.80;96182.00;;;;5047324;28;20216;-70
2023/09/21 05:10:46;;;;;;;6.17;4.97;;;;;16.70;96197.00;;;;5044208;28;20208;-68
2023/09/21 05:13:36;;;;;;;5.30;4.80;;;;;16.70;96195.00;;;;5041179;28;20662;-69
2023/09/21 05:16:25;;;;;;;10.30;4.30;;;;;16.80;96191.00;;;;5045909;28;20225;-69
2023/09/21 05:19:15;;;;;;;6.43;5.23;;;;;16.90;96197.00;;;;5040162;28;20201;-70
2023/09/21 05:22:05;;;;;;;5.97;5.30;;;;;17.00;96189.00;;;;5045490;28;20236;-69
2023/09/21 05:24:54;;;;;;;8.37;4.57;;;;;17.00;96199.00;;;;5046100;28;20224;-69
2023/09/21 05:27:43;;;;;;;9.03;5.33;;;;;17.00;96195.00;;;;5048045;28;20208;-69
2023/09/21 05:30:33;;;;;;;7.27;4.53;;;;;17.00;96198.00;;;;5046309;28;20193;-69
2023/09/21 05:33:22;;;;;;;5.57;4.80;;;;;17.20;96196.00;;;;5048179;28;20689;-69
2023/09/21 05:36:12;;;;;;;6.43;4.93;;;;;17.40;96196.00;;;;5047991;28;20224;-69
2023/09/21 05:39:04;;;;;;;6.60;5.73;;;;;17.40;96188.00;;;;5045322;28;20209;-69
2023/09/21 05:41:53;;;;;;;7.73;4.93;;;;;17.50;96183.00;;;;5042962;28;20228;-69
2023/09/21 05:44:42;;;;;;;9.03;6.00;;;;;17.60;96175.00;;;;5047258;28;20707;-69
2023/09/21 05:47:32;;;;;;;10.80;6.10;;;;;17.40;96183.00;;;;5035608;28;20233;-68
2023/09/21 05:50:22;;;;;;;9.27;5.50;;;;;17.50;96185.00;;;;5048448;28;20290;-69
2023/09/21 05:53:11;;;;;;;11.83;5.03;;;;;17.50;96173.00;;;;5079294;22;20240;-87
2023/09/21 05:56:02;;;;;;;9.13;5.00;;;;;17.70;96172.00;;;;5047101;28;20228;-87
2023/09/21 05:58:52;;;;;;;7.73;6.30;;;;;17.60;96170.00;;;;5049767;28;20196;-87
2023/09/21 06:01:41;;;;;;;17.07;6.73;;;;;17.50;96174.00;;;;5050073;28;20228;-87
2023/09/21 06:04:30;;;;;;;13.47;7.50;;;;;17.60;96169.00;;;;5053104;28;20286;-87
2023/09/21 06:07:20;;;;;;;12.97;7.63;;;;;17.60;96170.00;;;;5053274;28;20746;-87
2023/09/21 06:10:09;;;;;;;14.90;8.00;;;;;17.50;96170.00;;;;5049275;28;20659;-87
2023/09/21 06:13:00;;;;;;;12.63;7.20;;;;;17.50;96189.00;;;;5052220;28;20210;-87
2023/09/21 06:15:50;;;;;;;13.83;8.00;;;;;17.60;96184.00;;;;5051240;28;20217;-86
2023/09/21 06:18:39;;;;;;;11.80;8.23;;;;;17.80;96184.00;;;;5054119;28;20204;-86
2023/09/21 06:21:30;;;;;;;13.53;7.90;;;;;17.80;96173.00;;;;5046924;28;20305;-87
2023/09/21 06:24:20;;;;;;;19.43;9.07;;;;;18.20;96183.00;;;;5045428;28;20726;-86
2023/09/21 06:27:09;;;;;;;10.37;7.13;;;;;17.90;96190.00;;;;5052767;28;20278;-86
2023/09/21 06:29:59;;;;;;;11.37;6.67;;;;;18.00;96190.00;;;;5049919;28;20661;-87
2023/09/21 06:32:48;;;;;;;9.67;7.87;;;;;18.10;96184.00;;;;5049136;28;21125;-86
2023/09/21 06:35:38;;;;;;;10.37;8.00;;;;;18.20;96179.00;;;;5048834;28;20227;-87
2023/09/21 06:38:27;;;;;;;9.20;7.20;;;;;18.40;96178.00;;;;5050135;28;20688;-87
2023/09/21 06:41:16;;;;;;;9.13;6.80;;;;;18.40;96187.00;;;;5053247;28;20228;-86
2023/09/21 06:44:05;;;;;;;9.30;6.60;;;;;18.60;96192.00;;;;5039685;28;20212;-87
2023/09/21 06:46:56;;;;;;;8.10;6.60;;;;;19.00;96196.00;;;;5046169;28;20262;-86
2023/09/21 06:49:45;;;;;;;10.43;6.67;;;;;18.90;96203.00;;;;5046968;28;20209;-86
2023/09/21 06:52:35;;;;;;;9.70;6.57;;;;;19.30;96197.00;;;;5045855;28;20622;-87
2023/09/21 06:55:25;;;;;;;10.47;6.53;;;;;19.40;96187.00;;;;5042495;28;20258;-86
2023/09/21 06:58:14;;;;;;;9.43;5.60;;;;;19.70;96185.00;;;;5041841;28;20213;-86
2023/09/21 07:01:04;;;;;;;7.80;5.87;;;;;19.70;96177.00;;;;5044486;28;20225;-86
2023/09/21 07:03:54;;;;;;;8.13;5.53;;;;;19.70;96183.00;;;;5046220;28;20205;-86
2023/09/21 07:06:43;;;;;;;9.17;5.70;;;;;19.70;96196.00;;;;5048813;28;20192;-86
2023/09/21 07:09:33;;;;;;;10.20;5.33;;;;;19.90;96185.00;;;;5043308;28;20573;-86
2023/09/21 07:12:22;;;;;;;10.23;5.73;;;;;20.10;96191.00;;;;5043635;28;20223;-86
2023/09/21 07:15:12;;;;;;;12.83;6.70;;;;;20.00;96189.00;;;;5046759;28;20297;-86
2023/09/21 07:18:01;;;;;;;9.10;5.53;;;;;19.90;96187.00;;;;5045466;28;20206;-86
2023/09/21 07:20:51;;;;;;;10.37;5.33;;;;;20.20;96198.00;;;;5047989;28;20224;-86
2023/09/21 07:23:41;;;;;;;8.50;6.07;;;;;20.20;96203.00;;;;5044879;28;20193;-85
2023/09/21 07:26:31;;;;;;;7.93;5.83;;;;;20.50;96208.00;;;;5048647;28;20192;-85
2023/09/21 07:29:20;;;;;;;9.17;5.80;;;;;20.50;96197.00;;;;5049005;28;20207;-86
2023/09/21 07:32:10;;;;;;;14.97;6.83;;;;;20.50;96200.00;;;;5046794;28;20232;-85
2023/09/21 07:35:00;;;;;;;7.83;6.00;;;;;20.60;96193.00;;;;5048351;28;20200;-86
2023/09/21 07:37:51;;;;;;;5.93;5.23;;;;;20.70;96187.00;;;;5041472;28;20684;-86
2023/09/21 07:40:40;;;;;;;9.97;6.17;;;;;20.80;96189.00;;;;5046669;28;20227;-85
2023/09/21 07:43:29;;;;;;;8.23;5.83;;;;;21.00;96177.00;;;;5046391;28;20209;-86
2023/09/21 07:46:18;;;;;;;8.80;5.77;;;;;21.20;96188.00;;;;5047938;28;20189;-86
2023/09/21 07:49:08;;;;;;;11.07;5.50;;;;;21.30;96180.00;;;;5037476;28;20197;-85
2023/09/21 07:51:57;;;;;;;7.03;5.23;;;;;21.20;96185.00;;;;5040371;28;20239;-85
2023/09/21 07:54:47;;;;;;;12.90;7.10;;;;;21.40;96177.00;;;;5042227;28;20201;-85
2023/09/21 07:57:37;;;;;;;8.97;6.83;;;;;21.60;96182.00;;;;5047736;28;20235;-86
2023/09/21 08:00:27;;;;;;;12.43;6.70;;;;;21.70;96185.00;;;;5041713;28;20211;-86
2023/09/21 08:03:16;;;;;;;8.77;7.20;;;;;21.80;96175.00;;;;5037125;28;20204;-86
2023/09/21 08:06:07;;;;;;;8.00;6.10;;;;;21.50;96180.00;;;;5041150;28;20574;-86
2023/09/21 08:08:57;;;;;;;10.17;7.13;;;;;21.50;96178.00;;;;5038150;28;20208;-86
2023/09/21 08:11:48;;;;;;;9.87;7.13;;;;;21.90;96189.00;;;;5038204;28;20221;-86
2023/09/21 08:14:37;;;;;;;11.13;9.20;;;;;22.20;96175.00;;;;5043632;28;20271;-86
2023/09/21 08:17:29;;;;;;;15.67;9.27;;;;;21.80;96179.00;;;;5037482;28;20225;-86
2023/09/21 08:20:21;;;;;;;12.37;9.47;;;;;21.30;96176.00;;;;5045648;28;20584;-86
2023/09/21 08:23:11;;;;;;;14.70;8.57;;;;;21.60;96178.00;;;;5044069;28;20211;-86
2023/09/21 08:26:00;;;;;;;9.17;7.10;;;;;21.20;96174.00;;;;5044065;28;20204;-85
2023/09/21 08:28:52;;;;;;;12.63;9.20;;;;;21.80;96170.00;;;;5048768;28;20214;-85
2023/09/21 08:31:41;;;;;;;15.70;10.73;;;;;22.20;96185.00;;;;5047423;28;20232;-88
2023/09/21 08:34:31;;;;;;;14.93;11.20;;;;;22.70;96177.00;;;;5051160;28;20208;-86
2023/09/21 08:37:20;;;;;;;15.33;11.40;;;;;23.10;96187.00;;;;5047672;28;20298;-86
2023/09/21 08:40:10;;;;;;;16.67;12.10;;;;;23.10;96191.00;;;;5049754;28;20209;-86
2023/09/21 08:42:59;;;;;;;16.13;10.97;;;;;23.20;96179.00;;;;5046982;28;20224;-87
2023/09/21 08:45:51;;;;;;;13.17;10.80;;;;;23.20;96189.00;;;;5044342;28;20211;-86
2023/09/21 08:48:41;;;;;;;14.83;11.97;;;;;23.10;96174.00;;;;5045215;28;20204;-86
2023/09/21 08:51:32;;;;;;;16.97;12.23;;;;;23.20;96180.00;;;;5043164;28;20382;-86
2023/09/21 08:54:23;;;;;;;22.20;13.10;;;;;23.20;96180.00;;;;5041056;28;20228;-86
2023/09/21 08:57:13;;;;;;;17.33;13.80;;;;;23.40;96175.00;;;;5049984;28;20221;-86
2023/09/21 09:00:06;;;;;;;16.73;13.50;;;;;22.70;96171.00;;;;5045663;28;20280;-87
2023/09/21 09:02:57;;;;;;;15.23;12.77;;;;;22.00;96152.00;;;;5050469;28;20204;-86
2023/09/21 09:05:46;;;;;;;16.30;13.23;;;;;22.60;96151.00;;;;5049419;28;20196;-86
2023/09/21 09:08:35;;;;;;;11.17;9.63;;;;;23.60;96150.00;;;;5048384;28;20208;-86
2023/09/21 09:11:35;;;;;;;15.47;11.17;;;;;23.70;96152.00;;;;5045487;28;20655;-86
2023/09/21 09:14:24;;;;;;;19.30;10.33;;;;;23.20;96150.00;;;;5052095;28;20205;-86
2023/09/21 09:17:14;;;;;;;14.97;10.57;;;;;23.00;96142.00;;;;5045670;28;20232;-85
2023/09/21 09:20:06;;;;;;;13.20;10.00;;;;;24.00;96151.00;;;;5045022;28;20201;-86
2023/09/21 09:22:55;;;;;;;14.60;10.10;;;;;23.90;96144.00;;;;5046474;28;20208;-85
2023/09/21 09:25:45;;;;;;;13.10;10.57;;;;;24.50;96141.00;;;;5043345;28;20204;-86
2023/09/21 09:28:35;;;;;;;16.07;9.43;;;;;24.10;96139.00;;;;5050059;28;20204;-86
2023/09/21 09:31:24;;;;;;;12.10;8.30;;;;;24.60;96135.00;;;;5045497;28;20224;-87
2023/09/21 09:34:17;;;;;;;8.67;7.73;;;;;24.60;96127.00;;;;5050978;28;20200;-86
2023/09/21 09:37:08;;;;;;;7.97;6.97;;;;;25.30;96130.00;;;;5047709;28;20619;-86
2023/09/21 09:39:57;;;;;;;12.17;6.90;;;;;25.70;96124.00;;;;5043242;28;20208;-86
2023/09/21 09:42:48;;;;;;;8.33;6.00;;;;;26.00;96114.00;;;;5046183;28;20204;-86
2023/09/21 09:45:38;;;;;;;8.53;5.93;;;;;25.70;96112.00;;;;5049365;28;20546;-87
2023/09/21 09:48:32;;;;;;;12.63;6.80;;;;;26.10;96110.00;;;;5046557;28;20193;-87
2023/09/21 09:51:26;;;;;;;8.07;5.77;;;;;26.20;96096.00;;;;5050438;28;22175;-86
2023/09/21 09:54:18;;;;;;;7.77;5.70;;;;;25.90;96100.00;;;;5044012;28;20208;-86
2023/09/21 09:57:11;;;;;;;9.33;5.23;;;;;26.50;96089.00;;;;5040081;28;20263;-87
2023/09/21 10:00:05;;;;;;;8.73;5.90;;;;;26.60;96081.00;;;;5038883;28;20213;-86
2023/09/21 10:02:55;;;;;;;10.63;5.50;;;;;25.70;96080.00;;;;5053101;28;20223;-83
2023/09/21 10:05:46;;;;;;;7.73;5.47;;;;;25.10;96070.00;;;;5059039;28;20211;-87
2023/09/21 10:08:36;;;;;;;12.40;5.13;;;;;26.20;96069.00;;;;5051332;28;20226;-87
2023/09/21 10:11:27;;;;;;;6.13;4.43;;;;;27.20;96054.00;;;;5044196;28;20231;-88
2023/09/21 10:14:18;;;;;;;7.30;5.90;;;;;26.90;96043.00;;;;5042784;28;20197;-88
2023/09/21 10:17:10;;;;;;;6.87;4.53;;;;;27.10;96036.00;;;;5039863;28;20255;-89
2023/09/21 10:20:14;;;;;;;6.10;3.30;;;;;28.20;96033.00;;;;5043428;28;20342;-88
2023/09/21 10:23:09;;;;;;;12.70;4.17;;;;;27.70;96030.00;;;;5050038;28;20201;-87
2023/09/21 10:26:00;;;;;;;6.23;3.27;;;;;27.70;96021.00;;;;5052701;28;20773;-87
2023/09/21 10:28:53;;;;;;;6.03;3.20;;;;;26.80;96017.00;;;;5053001;28;20212;-84
2023/09/21 10:31:45;;;;;;;7.63;3.60;;;;;27.60;96008.00;;;;5047868;28;20233;-86
2023/09/21 10:34:34;;;;;;;5.33;2.80;;;;;27.30;96014.00;;;;5052105;28;20197;-84
2023/09/21 10:37:28;;;;;;;5.73;2.43;;;;;28.60;96005.00;;;;5046685;28;20210;-86
2023/09/21 10:40:22;;;;;;;4.53;2.77;;;;;28.60;95993.00;;;;5055868;28;20202;-86
2023/09/21 10:43:44;;;;;;;6.23;1.90;;;;;28.40;95995.00;;;;5052231;28;20210;-85
2023/09/21 10:46:37;;;;;;;4.13;1.90;;;;;29.20;95995.00;;;;5054511;28;20211;-86
2023/09/21 10:49:26;;;;;;;3.77;2.20;;;;;30.30;95981.00;;;;5060794;28;20193;-87
2023/09/21 10:52:16;;;;;;;3.33;1.87;;;;;29.40;95981.00;;;;5056748;28;20246;-85
2023/09/21 10:55:07;;;;;;;5.20;1.87;;;;;28.90;95983.00;;;;5052572;28;20205;-88
2023/09/21 10:58:00;;;;;;;2.50;1.73;;;;;30.30;95982.00;;;;5055982;28;20227;-87
2023/09/21 11:00:49;;;;;;;1.80;1.60;;;;;29.90;95977.00;;;;5050072;28;20228;-88
2023/09/21 11:03:42;;;;;;;1.70;1.60;;;;;31.40;95982.00;;;;5052770;28;20206;-87
2023/09/21 11:06:31;;;;;;;3.20;1.87;;;;;31.60;95977.00;;;;5053568;28;20205;-88
2023/09/21 11:09:20;;;;;;;2.30;1.67;;;;;30.40;95979.00;;;;5052036;28;20234;-87
2023/09/21 11:12:13;;;;;;;4.68;1.85;;;;;31.90;95974.00;;;;5049954;28;20225;-86
2023/09/21 11:15:03;;;;;;;3.05;2.08;;;;;31.50;95965.00;;;;5053759;28;20216;-86
2023/09/21 11:17:52;;;;;;;2.75;1.20;;;;;31.40;95966.00;;;;5049255;28;20232;-87
2023/09/21 11:20:44;;;;;;;3.58;1.73;;;;;30.30;95965.00;;;;5042240;28;20691;-88
2023/09/21 11:23:33;;;;;;;8.18;1.95;;;;;32.30;95946.00;;;;5045313;28;20497;-88
2023/09/21 11:26:25;;;;;;;2.70;1.38;;;;;32.90;95962.00;;;;5042235;28;20204;-89
2023/09/21 11:29:16;;;;;;;3.55;1.63;;;;;33.10;95948.00;;;;5050778;28;20223;-88
2023/09/21 11:32:08;;;;;;;5.20;2.00;;;;;32.80;95960.00;;;;5040081;28;20230;-88
2023/09/21 11:35:02;;;;;;;5.03;2.65;;;;;33.10;95954.00;;;;5039347;28;20218;-89
2023/09/21 11:37:53;;;;;;;3.35;1.70;;;;;33.60;95957.00;;;;5047029;28;20211;-88
2023/09/21 11:40:43;;;;;;;3.50;1.33;;;;;33.20;95952.00;;;;5048892;28;20233;-88
2023/09/21 11:43:33;;;;;;;3.65;1.65;;;;;33.40;95959.00;;;;5058438;28;20262;-88
2023/09/21 11:46:24;;;;;;;4.93;1.73;;;;;33.30;95957.00;;;;5050533;28;20686;-87
2023/09/21 11:49:14;;;;;;;6.85;1.65;;;;;34.20;95974.00;;;;5045387;28;20229;-88
2023/09/21 11:52:04;;;;;;;2.00;1.42;;;31.10;88.80;34.00;95959.00;;;;5043387;28;20239;-87
2023/09/21 11:54:54;;;;;;;6.93;1.77;;;31.20;86.50;33.50;95953.00;;;;5046047;28;20213;-86
2023/09/21 11:57:43;;;;;;;6.80;1.80;;;31.20;84.60;33.20;95946.00;;;;5049926;28;20474;-87
2023/09/21 12:00:43;;;;;;;2.90;1.95;;;31.00;84.50;33.90;95950.00;;;;5049192;28;20227;-87
2023/09/21 12:03:37;;;;;;;8.73;2.38;;;31.00;84.70;34.80;95940.00;;;;5051679;22;20212;-69
2023/09/21 12:06:27;;;;;;;6.43;1.40;;;31.30;84.30;35.40;95934.00;;;;5060376;28;20589;-69
2023/09/21 12:09:18;;;;;;;5.35;1.55;;;31.60;84.20;36.50;95929.00;;;;5059560;28;20289;-68
2023/09/21 12:12:09;;;;;;;3.28;2.20;;;32.10;83.80;35.30;95924.00;;;;5051914;28;20739;-68
2023/09/21 12:14:58;;;;;;;7.55;1.90;;;32.40;78.00;37.00;95917.00;;;;5038924;28;20211;-69
2023/09/21 12:17:47;;;;;;;5.18;2.08;;;32.80;79.10;37.50;95918.00;;;;5038911;28;20201;-68
2023/09/21 12:20:36;;;;;;;6.03;1.60;;;33.30;79.40;37.90;95919.00;;;;5038200;28;20190;-68
2023/09/21 12:23:25;;;;;;;3.85;1.35;;;33.80;77.00;38.00;95918.00;;;;5036631;28;21060;-69
2023/09/21 12:26:14;;;;;;;3.03;1.77;;;34.10;75.20;38.10;95906.00;;;;5036360;28;20693;-69
2023/09/21 12:29:04;;;;;;;6.60;1.52;;;34.40;74.20;35.00;95916.00;;;;5038383;28;20250;-69
2023/09/21 12:31:54;;;;;;;4.40;1.63;;;33.20;67.90;32.90;95918.00;;;;5034529;28;20224;-67
2023/09/21 12:34:47;;;;;;;4.18;1.65;;;32.80;70.00;36.10;95916.00;;;;5035642;28;20201;-69
2023/09/21 12:37:36;;;;;;;8.13;1.80;;;32.80;72.90;37.00;95912.00;;;;5041717;28;20203;-68
2023/09/21 12:40:25;;;;;;;4.50;1.73;;;33.10;73.30;37.30;95913.00;;;;5038156;28;20201;-69
2023/09/21 12:43:16;;;;;;;2.70;1.38;;;33.40;72.70;36.20;95917.00;;;;5039675;28;20263;-68
2023/09/21 12:46:08;;;;;;;3.83;1.55;;;33.30;70.30;34.40;95960.00;;;;5041427;28;20219;-68
2023/09/21 12:48:57;;;;;;;8.88;2.20;;;33.00;70.30;34.30;95933.00;;;;5043388;28;20236;-69
2023/09/21 12:51:45;;;;;;;5.72;1.90;;;32.60;70.80;36.10;95889.00;;;;5043328;28;20258;-68
2023/09/21 12:54:34;;;;;;;7.35;2.10;;;32.60;73.10;37.40;95904.00;;;;5042677;28;20196;-68
2023/09/21 12:57:23;;;;;;;3.08;1.50;;;33.00;73.60;38.20;95900.00;;;;5040954;28;20219;-69
2023/09/21 13:00:15;;;;;;;5.70;2.25;;;33.60;72.50;38.40;95912.00;;;;5046769;28;20205;-69
2023/09/21 13:03:07;;;;;;;;;;;34.00;71.10;38.90;95917.00;;;;5043819;28;20235;-68
2023/09/21 13:05:56;;;;;;;6.53;1.95;;;34.60;70.70;38.90;95967.00;;;;5044691;28;20193;-69
2023/09/21 13:08:45;;;;;;;7.00;2.03;;;34.90;68.60;38.30;95913.00;;;;5045837;28;20595;-69
2023/09/21 13:11:33;;;;;;;4.40;1.77;;;34.90;68.00;38.80;95927.00;;;;5045581;28;20200;-69
2023/09/21 13:14:22;;;;;;;3.72;1.70;;;35.10;67.30;38.20;95939.00;;;;5041478;28;20200;-69
2023/09/21 13:17:11;;;;;;;4.50;1.55;;;35.40;66.20;37.40;95923.00;;;;5042281;28;20578;-69
2023/09/21 13:20:03;;;;;;;5.68;2.15;;;35.00;64.90;37.20;95899.00;;;;5045940;28;20204;-69
2023/09/21 13:22:52;;;;;;;5.15;2.20;;;34.40;65.10;37.40;95892.00;;;;5043424;28;20220;-68
2023/09/21 13:25:41;;;;;;;6.03;2.08;;;34.40;64.60;37.90;95900.00;;;;5042930;28;20215;-69
2023/09/21 13:28:30;;;;;;;3.20;1.48;;;34.60;66.00;36.80;95917.00;;;;5046056;28;20200;-68
2023/09/21 13:31:22;;;;;;;5.45;2.03;;;34.40;65.60;35.70;95956.00;;;;5041256;28;20208;-68
2023/09/21 13:34:12;;;;;;;6.70;2.42;;;;;34.40;95909.00;;;;5041033;28;20200;-68
2023/09/21 13:37:03;;;;;;;7.60;2.03;;;;;36.40;95907.00;;;;5039987;28;20220;-69
2023/09/21 13:39:52;;;;;;;4.32;1.85;;;;;34.80;95916.00;;;;5044739;28;20203;-69
2023/09/21 13:42:41;;;;;;;9.25;2.13;;;;;35.10;95948.00;;;;5045040;28;20247;-68
2023/09/21 13:45:30;;;;;;;6.68;2.85;;;;;36.40;95894.00;;;;5045370;28;20203;-68
2023/09/21 13:48:21;;;;;;;4.88;1.67;;;;;35.60;95909.00;;;;5042775;28;20201;-69
2023/09/21 13:51:11;;;;;;;7.50;2.58;;;;;36.20;95912.00;;;;5042000;28;20200;-69
2023/09/21 13:54:02;;;;;;;7.70;2.35;;;;;36.70;95902.00;;;;5041032;28;20588;-69
2023/09/21 13:56:51;;;;;;;9.82;3.78;;;33.70;66.20;36.40;95899.00;;;;5043801;28;20212;-68